sensor_id;sensor_type;location;lat;lon;timestamp;P1;durP1;ratioP1;P2;durP2;ratioP2
12681;SDS011;6405;59.208;18.216;2023-01-29T00:01:05;6.43;;;2.67;;
12681;SDS011;6405;59.208;18.216;2023-01-29T00:03:32;9.30;;;2.40;;
12681;SDS011;6405;59.208;18.216;2023-01-29T00:05:58;8.87;;;2.60;;
12681;SDS011;6405;59.208;18.216;2023-01-29T00:08:24;6.00;;;2.70;;
12681;SDS011;6405;59.208;18.216;2023-01-29T00:10:51;9.13;;;2.73;;
12681;SDS011;6405;59.208;18.216;2023-01-29T00:13:17;6.17;;;2.20;;
12681;SDS011;6405;59.208;18.216;2023-01-29T00:15:51;6.80;;;2.10;;
12681;SDS011;6405;59.208;18.216;2023-01-29T00:18:19;11.33;;;2.60;;
12681;SDS011;6405;59.208;18.216;2023-01-29T00:20:44;6.57;;;2.60;;
12681;SDS011;6405;59.208;18.216;2023-01-29T00:23:10;6.83;;;2.20;;
12681;SDS011;6405;59.208;18.216;2023-01-29T00:25:36;8.90;;;3.10;;
12681;SDS011;6405;59.208;18.216;2023-01-29T00:28:02;10.27;;;2.63;;
12681;SDS011;6405;59.208;18.216;2023-01-29T00:30:28;6.07;;;2.37;;
12681;SDS011;6405;59.208;18.216;2023-01-29T00:32:54;7.40;;;2.50;;
12681;SDS011;6405;59.208;18.216;2023-01-29T00:35:19;7.47;;;2.63;;
12681;SDS011;6405;59.208;18.216;2023-01-29T00:37:45;8.37;;;2.33;;
12681;SDS011;6405;59.208;18.216;2023-01-29T00:40:11;10.43;;;2.40;;
12681;SDS011;6405;59.208;18.216;2023-01-29T00:42:36;9.17;;;2.53;;
12681;SDS011;6405;59.208;18.216;2023-01-29T00:45:21;8.73;;;2.43;;
12681;SDS011;6405;59.208;18.216;2023-01-29T00:47:46;6.80;;;2.03;;
12681;SDS011;6405;59.208;18.216;2023-01-29T00:50:12;7.47;;;2.23;;
12681;SDS011;6405;59.208;18.216;2023-01-29T00:52:38;6.90;;;2.37;;
12681;SDS011;6405;59.208;18.216;2023-01-29T00:55:05;6.23;;;2.50;;
12681;SDS011;6405;59.208;18.216;2023-01-29T00:57:32;4.97;;;1.97;;
12681;SDS011;6405;59.208;18.216;2023-01-29T00:59:59;11.20;;;2.63;;
12681;SDS011;6405;59.208;18.216;2023-01-29T01:02:26;6.73;;;2.10;;
12681;SDS011;6405;59.208;18.216;2023-01-29T01:05:11;11.77;;;2.30;;
12681;SDS011;6405;59.208;18.216;2023-01-29T01:07:42;8.90;;;2.17;;
12681;SDS011;6405;59.208;18.216;2023-01-29T01:10:21;4.60;;;2.07;;
12681;SDS011;6405;59.208;18.216;2023-01-29T01:13:01;8.50;;;2.40;;
12681;SDS011;6405;59.208;18.216;2023-01-29T01:15:36;6.37;;;2.20;;
12681;SDS011;6405;59.208;18.216;2023-01-29T01:18:03;8.13;;;2.03;;
12681;SDS011;6405;59.208;18.216;2023-01-29T01:20:30;7.30;;;2.67;;
12681;SDS011;6405;59.208;18.216;2023-01-29T01:22:59;8.47;;;2.50;;
12681;SDS011;6405;59.208;18.216;2023-01-29T01:25:25;9.03;;;2.40;;
12681;SDS011;6405;59.208;18.216;2023-01-29T01:27:52;4.90;;;1.90;;
12681;SDS011;6405;59.208;18.216;2023-01-29T01:30:18;4.37;;;2.00;;
12681;SDS011;6405;59.208;18.216;2023-01-29T01:32:44;8.10;;;2.07;;
12681;SDS011;6405;59.208;18.216;2023-01-29T01:35:10;8.93;;;2.73;;
12681;SDS011;6405;59.208;18.216;2023-01-29T01:37:38;6.93;;;1.97;;
12681;SDS011;6405;59.208;18.216;2023-01-29T01:40:05;9.63;;;2.37;;
12681;SDS011;6405;59.208;18.216;2023-01-29T01:42:37;4.23;;;1.93;;
12681;SDS011;6405;59.208;18.216;2023-01-29T01:45:04;4.27;;;2.23;;
12681;SDS011;6405;59.208;18.216;2023-01-29T01:50:06;4.30;;;2.13;;
12681;SDS011;6405;59.208;18.216;2023-01-29T01:52:40;6.43;;;2.20;;
12681;SDS011;6405;59.208;18.216;2023-01-29T01:55:12;11.57;;;2.80;;
12681;SDS011;6405;59.208;18.216;2023-01-29T01:57:41;6.53;;;2.63;;
12681;SDS011;6405;59.208;18.216;2023-01-29T02:00:11;7.03;;;2.47;;
12681;SDS011;6405;59.208;18.216;2023-01-29T02:02:40;5.57;;;2.30;;
12681;SDS011;6405;59.208;18.216;2023-01-29T02:05:26;7.17;;;2.13;;
12681;SDS011;6405;59.208;18.216;2023-01-29T02:08:11;4.63;;;2.70;;
12681;SDS011;6405;59.208;18.216;2023-01-29T02:10:56;7.10;;;2.80;;
12681;SDS011;6405;59.208;18.216;2023-01-29T02:13:22;7.33;;;2.50;;
12681;SDS011;6405;59.208;18.216;2023-01-29T02:15:48;4.97;;;2.40;;
12681;SDS011;6405;59.208;18.216;2023-01-29T02:18:18;8.17;;;2.63;;
12681;SDS011;6405;59.208;18.216;2023-01-29T02:20:53;5.97;;;2.30;;
12681;SDS011;6405;59.208;18.216;2023-01-29T02:23:42;7.17;;;3.13;;
12681;SDS011;6405;59.208;18.216;2023-01-29T02:29:01;10.37;;;2.30;;
12681;SDS011;6405;59.208;18.216;2023-01-29T02:40:33;7.50;;;3.23;;
12681;SDS011;6405;59.208;18.216;2023-01-29T02:43:12;11.83;;;2.90;;
12681;SDS011;6405;59.208;18.216;2023-01-29T02:45:58;8.67;;;3.23;;
12681;SDS011;6405;59.208;18.216;2023-01-29T02:48:48;7.77;;;3.40;;
12681;SDS011;6405;59.208;18.216;2023-01-29T02:51:22;7.23;;;3.50;;
12681;SDS011;6405;59.208;18.216;2023-01-29T02:54:02;6.40;;;3.20;;
12681;SDS011;6405;59.208;18.216;2023-01-29T02:56:37;8.43;;;3.43;;
12681;SDS011;6405;59.208;18.216;2023-01-29T02:59:13;8.57;;;3.53;;
12681;SDS011;6405;59.208;18.216;2023-01-29T03:01:47;15.63;;;4.47;;
12681;SDS011;6405;59.208;18.216;2023-01-29T03:04:23;7.83;;;3.00;;
12681;SDS011;6405;59.208;18.216;2023-01-29T03:06:54;6.43;;;3.50;;
12681;SDS011;6405;59.208;18.216;2023-01-29T03:09:29;7.63;;;3.50;;
12681;SDS011;6405;59.208;18.216;2023-01-29T03:12:09;14.43;;;3.77;;
12681;SDS011;6405;59.208;18.216;2023-01-29T03:15:14;8.33;;;3.33;;
12681;SDS011;6405;59.208;18.216;2023-01-29T03:20:25;9.37;;;3.10;;
12681;SDS011;6405;59.208;18.216;2023-01-29T03:22:57;7.93;;;3.00;;
12681;SDS011;6405;59.208;18.216;2023-01-29T03:25:28;5.80;;;2.63;;
12681;SDS011;6405;59.208;18.216;2023-01-29T03:28:14;7.33;;;2.90;;
12681;SDS011;6405;59.208;18.216;2023-01-29T03:31:04;5.80;;;2.73;;
12681;SDS011;6405;59.208;18.216;2023-01-29T03:34:08;11.23;;;3.30;;
12681;SDS011;6405;59.208;18.216;2023-01-29T03:37:14;4.53;;;2.57;;
12681;SDS011;6405;59.208;18.216;2023-01-29T03:39:35;5.40;;;3.00;;
12681;SDS011;6405;59.208;18.216;2023-01-29T03:53:53;5.23;;;3.10;;
12681;SDS011;6405;59.208;18.216;2023-01-29T03:59:32;13.53;;;4.10;;
12681;SDS011;6405;59.208;18.216;2023-01-29T04:02:16;9.87;;;4.33;;
12681;SDS011;6405;59.208;18.216;2023-01-29T04:05:04;7.70;;;4.40;;
12681;SDS011;6405;59.208;18.216;2023-01-29T04:07:37;15.57;;;5.90;;
12681;SDS011;6405;59.208;18.216;2023-01-29T04:10:07;10.13;;;4.43;;
12681;SDS011;6405;59.208;18.216;2023-01-29T04:12:40;11.70;;;5.00;;
12681;SDS011;6405;59.208;18.216;2023-01-29T04:15:15;16.17;;;4.73;;
12681;SDS011;6405;59.208;18.216;2023-01-29T04:17:45;13.53;;;4.50;;
12681;SDS011;6405;59.208;18.216;2023-01-29T04:20:15;12.90;;;4.80;;
12681;SDS011;6405;59.208;18.216;2023-01-29T04:22:43;17.23;;;5.03;;
12681;SDS011;6405;59.208;18.216;2023-01-29T04:25:11;9.97;;;4.40;;
12681;SDS011;6405;59.208;18.216;2023-01-29T04:41:35;9.47;;;4.47;;
12681;SDS011;6405;59.208;18.216;2023-01-29T04:44:15;13.57;;;4.40;;
12681;SDS011;6405;59.208;18.216;2023-01-29T04:47:08;12.93;;;4.87;;
12681;SDS011;6405;59.208;18.216;2023-01-29T04:50:08;9.40;;;4.53;;
12681;SDS011;6405;59.208;18.216;2023-01-29T04:52:59;13.97;;;4.70;;
12681;SDS011;6405;59.208;18.216;2023-01-29T04:55:43;7.00;;;3.93;;
12681;SDS011;6405;59.208;18.216;2023-01-29T04:58:21;8.83;;;4.50;;
12681;SDS011;6405;59.208;18.216;2023-01-29T05:01:17;8.13;;;3.83;;
12681;SDS011;6405;59.208;18.216;2023-01-29T05:03:45;14.03;;;4.87;;
12681;SDS011;6405;59.208;18.216;2023-01-29T05:06:14;10.90;;;5.03;;
12681;SDS011;6405;59.208;18.216;2023-01-29T05:08:41;11.20;;;4.97;;
12681;SDS011;6405;59.208;18.216;2023-01-29T05:11:08;10.33;;;5.17;;
12681;SDS011;6405;59.208;18.216;2023-01-29T05:13:35;7.80;;;4.60;;
12681;SDS011;6405;59.208;18.216;2023-01-29T05:16:21;12.97;;;4.60;;
12681;SDS011;6405;59.208;18.216;2023-01-29T05:18:53;13.60;;;4.60;;
12681;SDS011;6405;59.208;18.216;2023-01-29T05:21:19;14.17;;;5.20;;
12681;SDS011;6405;59.208;18.216;2023-01-29T05:24:04;8.60;;;5.10;;
12681;SDS011;6405;59.208;18.216;2023-01-29T05:26:31;9.67;;;4.77;;
12681;SDS011;6405;59.208;18.216;2023-01-29T05:29:17;11.13;;;4.63;;
12681;SDS011;6405;59.208;18.216;2023-01-29T05:31:43;17.57;;;5.30;;
12681;SDS011;6405;59.208;18.216;2023-01-29T05:34:09;14.80;;;5.53;;
12681;SDS011;6405;59.208;18.216;2023-01-29T05:36:34;13.33;;;5.57;;
12681;SDS011;6405;59.208;18.216;2023-01-29T05:39:00;11.10;;;5.63;;
12681;SDS011;6405;59.208;18.216;2023-01-29T05:41:25;10.00;;;5.80;;
12681;SDS011;6405;59.208;18.216;2023-01-29T05:43:51;12.63;;;5.20;;
12681;SDS011;6405;59.208;18.216;2023-01-29T05:46:17;11.77;;;5.60;;
12681;SDS011;6405;59.208;18.216;2023-01-29T05:48:42;7.67;;;4.37;;
12681;SDS011;6405;59.208;18.216;2023-01-29T05:51:08;11.10;;;5.10;;
12681;SDS011;6405;59.208;18.216;2023-01-29T05:53:33;13.37;;;5.07;;
12681;SDS011;6405;59.208;18.216;2023-01-29T05:56:00;9.17;;;5.13;;
12681;SDS011;6405;59.208;18.216;2023-01-29T05:58:27;17.83;;;5.70;;
12681;SDS011;6405;59.208;18.216;2023-01-29T06:00:55;9.80;;;5.50;;
12681;SDS011;6405;59.208;18.216;2023-01-29T06:03:20;9.37;;;4.93;;
12681;SDS011;6405;59.208;18.216;2023-01-29T06:05:46;9.77;;;4.83;;
12681;SDS011;6405;59.208;18.216;2023-01-29T06:08:11;9.90;;;5.23;;
12681;SDS011;6405;59.208;18.216;2023-01-29T06:10:37;10.57;;;5.40;;
12681;SDS011;6405;59.208;18.216;2023-01-29T06:13:03;8.97;;;4.10;;
12681;SDS011;6405;59.208;18.216;2023-01-29T06:15:28;7.63;;;4.43;;
12681;SDS011;6405;59.208;18.216;2023-01-29T06:17:55;10.73;;;4.60;;
12681;SDS011;6405;59.208;18.216;2023-01-29T06:20:21;11.63;;;4.83;;
12681;SDS011;6405;59.208;18.216;2023-01-29T06:22:47;11.07;;;4.90;;
12681;SDS011;6405;59.208;18.216;2023-01-29T06:25:12;11.43;;;4.70;;
12681;SDS011;6405;59.208;18.216;2023-01-29T06:27:38;11.17;;;4.73;;
12681;SDS011;6405;59.208;18.216;2023-01-29T06:30:04;10.23;;;5.10;;
12681;SDS011;6405;59.208;18.216;2023-01-29T06:32:30;7.43;;;5.10;;
12681;SDS011;6405;59.208;18.216;2023-01-29T06:34:56;8.37;;;4.77;;
12681;SDS011;6405;59.208;18.216;2023-01-29T06:37:21;11.47;;;5.00;;
12681;SDS011;6405;59.208;18.216;2023-01-29T06:39:47;13.37;;;5.20;;
12681;SDS011;6405;59.208;18.216;2023-01-29T06:42:13;11.20;;;5.10;;
12681;SDS011;6405;59.208;18.216;2023-01-29T06:44:38;12.57;;;5.03;;
12681;SDS011;6405;59.208;18.216;2023-01-29T06:47:04;13.13;;;4.77;;
12681;SDS011;6405;59.208;18.216;2023-01-29T06:49:30;10.77;;;4.70;;
12681;SDS011;6405;59.208;18.216;2023-01-29T06:51:55;9.50;;;5.13;;
12681;SDS011;6405;59.208;18.216;2023-01-29T06:54:21;10.07;;;4.57;;
12681;SDS011;6405;59.208;18.216;2023-01-29T06:56:47;10.00;;;4.47;;
12681;SDS011;6405;59.208;18.216;2023-01-29T06:59:13;14.13;;;5.17;;
12681;SDS011;6405;59.208;18.216;2023-01-29T07:01:38;10.47;;;4.77;;
12681;SDS011;6405;59.208;18.216;2023-01-29T07:04:08;9.37;;;4.53;;
12681;SDS011;6405;59.208;18.216;2023-01-29T07:06:37;9.73;;;4.60;;
12681;SDS011;6405;59.208;18.216;2023-01-29T07:09:03;8.20;;;4.37;;
12681;SDS011;6405;59.208;18.216;2023-01-29T07:11:29;13.47;;;4.50;;
12681;SDS011;6405;59.208;18.216;2023-01-29T07:13:55;8.97;;;4.17;;
12681;SDS011;6405;59.208;18.216;2023-01-29T07:16:20;7.80;;;4.20;;
12681;SDS011;6405;59.208;18.216;2023-01-29T07:18:47;6.40;;;3.83;;
12681;SDS011;6405;59.208;18.216;2023-01-29T07:21:13;8.57;;;4.00;;
12681;SDS011;6405;59.208;18.216;2023-01-29T07:23:38;8.37;;;4.03;;
12681;SDS011;6405;59.208;18.216;2023-01-29T07:26:04;9.00;;;4.00;;
12681;SDS011;6405;59.208;18.216;2023-01-29T07:28:31;8.17;;;3.90;;
12681;SDS011;6405;59.208;18.216;2023-01-29T07:31:00;7.83;;;3.73;;
12681;SDS011;6405;59.208;18.216;2023-01-29T07:33:26;14.73;;;4.83;;
12681;SDS011;6405;59.208;18.216;2023-01-29T07:35:52;9.40;;;3.40;;
12681;SDS011;6405;59.208;18.216;2023-01-29T07:38:18;11.67;;;4.17;;
12681;SDS011;6405;59.208;18.216;2023-01-29T07:40:44;11.07;;;4.13;;
12681;SDS011;6405;59.208;18.216;2023-01-29T07:43:09;8.83;;;3.70;;
12681;SDS011;6405;59.208;18.216;2023-01-29T07:45:35;9.70;;;4.00;;
12681;SDS011;6405;59.208;18.216;2023-01-29T07:48:03;12.63;;;4.37;;
12681;SDS011;6405;59.208;18.216;2023-01-29T07:50:30;7.93;;;3.60;;
12681;SDS011;6405;59.208;18.216;2023-01-29T07:52:56;7.90;;;4.30;;
12681;SDS011;6405;59.208;18.216;2023-01-29T07:55:22;5.57;;;3.67;;
12681;SDS011;6405;59.208;18.216;2023-01-29T07:57:55;7.33;;;4.07;;
12681;SDS011;6405;59.208;18.216;2023-01-29T08:00:21;8.20;;;3.60;;
12681;SDS011;6405;59.208;18.216;2023-01-29T08:02:47;11.77;;;4.60;;
12681;SDS011;6405;59.208;18.216;2023-01-29T08:05:13;6.77;;;3.67;;
12681;SDS011;6405;59.208;18.216;2023-01-29T08:07:38;6.17;;;3.20;;
12681;SDS011;6405;59.208;18.216;2023-01-29T08:10:04;7.53;;;3.07;;
12681;SDS011;6405;59.208;18.216;2023-01-29T08:12:30;7.27;;;3.50;;
12681;SDS011;6405;59.208;18.216;2023-01-29T08:14:55;9.80;;;3.90;;
12681;SDS011;6405;59.208;18.216;2023-01-29T08:17:21;10.40;;;3.57;;
12681;SDS011;6405;59.208;18.216;2023-01-29T08:19:47;10.60;;;3.20;;
12681;SDS011;6405;59.208;18.216;2023-01-29T08:22:12;10.60;;;3.80;;
12681;SDS011;6405;59.208;18.216;2023-01-29T08:24:40;8.73;;;3.53;;
12681;SDS011;6405;59.208;18.216;2023-01-29T08:27:06;8.57;;;3.80;;
12681;SDS011;6405;59.208;18.216;2023-01-29T08:29:32;7.77;;;3.60;;
12681;SDS011;6405;59.208;18.216;2023-01-29T08:31:57;11.83;;;3.87;;
12681;SDS011;6405;59.208;18.216;2023-01-29T08:34:23;9.63;;;3.63;;
12681;SDS011;6405;59.208;18.216;2023-01-29T08:36:49;9.70;;;3.27;;
12681;SDS011;6405;59.208;18.216;2023-01-29T08:39:14;8.97;;;3.40;;
12681;SDS011;6405;59.208;18.216;2023-01-29T08:41:40;8.33;;;3.07;;
12681;SDS011;6405;59.208;18.216;2023-01-29T08:44:05;8.37;;;3.03;;
12681;SDS011;6405;59.208;18.216;2023-01-29T08:46:31;6.63;;;3.30;;
12681;SDS011;6405;59.208;18.216;2023-01-29T08:48:57;5.90;;;2.70;;
12681;SDS011;6405;59.208;18.216;2023-01-29T08:51:23;7.30;;;3.10;;
12681;SDS011;6405;59.208;18.216;2023-01-29T08:53:50;4.33;;;2.53;;
12681;SDS011;6405;59.208;18.216;2023-01-29T08:56:16;6.63;;;3.10;;
12681;SDS011;6405;59.208;18.216;2023-01-29T08:58:41;9.53;;;3.60;;
12681;SDS011;6405;59.208;18.216;2023-01-29T09:01:11;8.60;;;3.50;;
12681;SDS011;6405;59.208;18.216;2023-01-29T09:03:38;7.10;;;2.70;;
12681;SDS011;6405;59.208;18.216;2023-01-29T09:06:12;10.13;;;2.87;;
12681;SDS011;6405;59.208;18.216;2023-01-29T09:08:38;8.90;;;3.10;;
12681;SDS011;6405;59.208;18.216;2023-01-29T09:11:04;6.63;;;2.43;;
12681;SDS011;6405;59.208;18.216;2023-01-29T09:13:30;5.37;;;2.53;;
12681;SDS011;6405;59.208;18.216;2023-01-29T09:15:59;10.27;;;2.70;;
12681;SDS011;6405;59.208;18.216;2023-01-29T09:18:26;3.73;;;1.20;;
12681;SDS011;6405;59.208;18.216;2023-01-29T09:20:52;11.10;;;3.07;;
12681;SDS011;6405;59.208;18.216;2023-01-29T09:23:18;5.03;;;2.70;;
12681;SDS011;6405;59.208;18.216;2023-01-29T09:25:44;5.63;;;2.47;;
12681;SDS011;6405;59.208;18.216;2023-01-29T09:28:10;9.47;;;3.07;;
12681;SDS011;6405;59.208;18.216;2023-01-29T09:30:36;6.50;;;2.87;;
12681;SDS011;6405;59.208;18.216;2023-01-29T09:33:05;7.57;;;2.80;;
12681;SDS011;6405;59.208;18.216;2023-01-29T09:35:32;6.83;;;3.10;;
12681;SDS011;6405;59.208;18.216;2023-01-29T09:37:58;14.97;;;4.90;;
12681;SDS011;6405;59.208;18.216;2023-01-29T09:40:25;9.70;;;4.27;;
12681;SDS011;6405;59.208;18.216;2023-01-29T09:42:55;9.73;;;4.57;;
12681;SDS011;6405;59.208;18.216;2023-01-29T09:45:27;11.10;;;4.33;;
12681;SDS011;6405;59.208;18.216;2023-01-29T09:47:57;5.83;;;2.93;;
12681;SDS011;6405;59.208;18.216;2023-01-29T09:50:28;8.50;;;2.70;;
12681;SDS011;6405;59.208;18.216;2023-01-29T09:53:06;7.30;;;2.30;;
12681;SDS011;6405;59.208;18.216;2023-01-29T09:56:07;7.67;;;2.40;;
12681;SDS011;6405;59.208;18.216;2023-01-29T09:58:39;8.30;;;3.70;;
12681;SDS011;6405;59.208;18.216;2023-01-29T10:03:58;7.97;;;4.10;;
12681;SDS011;6405;59.208;18.216;2023-01-29T10:06:50;7.43;;;2.83;;
12681;SDS011;6405;59.208;18.216;2023-01-29T10:12:12;6.43;;;2.63;;
12681;SDS011;6405;59.208;18.216;2023-01-29T10:14:50;3.03;;;1.60;;
12681;SDS011;6405;59.208;18.216;2023-01-29T10:17:59;6.97;;;1.93;;
12681;SDS011;6405;59.208;18.216;2023-01-29T10:20:51;8.50;;;2.23;;
12681;SDS011;6405;59.208;18.216;2023-01-29T10:25:51;5.43;;;2.20;;
12681;SDS011;6405;59.208;18.216;2023-01-29T10:28:28;8.13;;;1.83;;
12681;SDS011;6405;59.208;18.216;2023-01-29T10:31:09;9.70;;;2.30;;
12681;SDS011;6405;59.208;18.216;2023-01-29T10:33:40;4.00;;;1.60;;
12681;SDS011;6405;59.208;18.216;2023-01-29T10:36:14;8.23;;;2.03;;
12681;SDS011;6405;59.208;18.216;2023-01-29T10:38:46;9.23;;;2.47;;
12681;SDS011;6405;59.208;18.216;2023-01-29T10:52:29;8.13;;;2.10;;
12681;SDS011;6405;59.208;18.216;2023-01-29T11:00:39;6.77;;;1.63;;
12681;SDS011;6405;59.208;18.216;2023-01-29T11:03:16;10.40;;;2.10;;
12681;SDS011;6405;59.208;18.216;2023-01-29T11:11:43;10.53;;;2.00;;
12681;SDS011;6405;59.208;18.216;2023-01-29T11:14:37;5.73;;;1.37;;
12681;SDS011;6405;59.208;18.216;2023-01-29T11:17:14;8.13;;;2.00;;
12681;SDS011;6405;59.208;18.216;2023-01-29T11:19:45;6.53;;;1.80;;
12681;SDS011;6405;59.208;18.216;2023-01-29T11:22:16;7.50;;;1.83;;
12681;SDS011;6405;59.208;18.216;2023-01-29T11:24:45;5.80;;;1.60;;
12681;SDS011;6405;59.208;18.216;2023-01-29T11:27:31;2.37;;;1.37;;
12681;SDS011;6405;59.208;18.216;2023-01-29T11:29:59;8.13;;;1.83;;
12681;SDS011;6405;59.208;18.216;2023-01-29T11:32:29;6.30;;;1.77;;
12681;SDS011;6405;59.208;18.216;2023-01-29T11:35:16;6.27;;;1.87;;
12681;SDS011;6405;59.208;18.216;2023-01-29T11:37:47;7.03;;;2.03;;
12681;SDS011;6405;59.208;18.216;2023-01-29T11:42:51;9.00;;;1.77;;
12681;SDS011;6405;59.208;18.216;2023-01-29T11:47:56;9.97;;;2.03;;
12681;SDS011;6405;59.208;18.216;2023-01-29T11:50:26;8.40;;;2.10;;
12681;SDS011;6405;59.208;18.216;2023-01-29T11:52:54;4.87;;;1.57;;
12681;SDS011;6405;59.208;18.216;2023-01-29T11:55:23;4.03;;;1.50;;
12681;SDS011;6405;59.208;18.216;2023-01-29T11:57:52;11.43;;;2.27;;
12681;SDS011;6405;59.208;18.216;2023-01-29T12:00:26;5.37;;;1.70;;
12681;SDS011;6405;59.208;18.216;2023-01-29T12:03:01;6.50;;;1.80;;
12681;SDS011;6405;59.208;18.216;2023-01-29T12:05:39;5.43;;;1.63;;
12681;SDS011;6405;59.208;18.216;2023-01-29T12:08:16;9.70;;;1.73;;
12681;SDS011;6405;59.208;18.216;2023-01-29T12:10:42;6.50;;;2.33;;
12681;SDS011;6405;59.208;18.216;2023-01-29T12:15:34;5.27;;;1.43;;
12681;SDS011;6405;59.208;18.216;2023-01-29T12:18:02;5.87;;;2.07;;
12681;SDS011;6405;59.208;18.216;2023-01-29T12:20:39;5.10;;;1.20;;
12681;SDS011;6405;59.208;18.216;2023-01-29T12:23:25;6.93;;;1.90;;
12681;SDS011;6405;59.208;18.216;2023-01-29T12:26:03;5.60;;;1.60;;
12681;SDS011;6405;59.208;18.216;2023-01-29T12:34:26;4.17;;;1.23;;
12681;SDS011;6405;59.208;18.216;2023-01-29T12:37:21;7.70;;;1.50;;
12681;SDS011;6405;59.208;18.216;2023-01-29T12:39:53;4.30;;;1.40;;
12681;SDS011;6405;59.208;18.216;2023-01-29T12:42:19;4.73;;;1.33;;
12681;SDS011;6405;59.208;18.216;2023-01-29T12:47:37;11.17;;;2.83;;
12681;SDS011;6405;59.208;18.216;2023-01-29T12:52:46;8.17;;;1.90;;
12681;SDS011;6405;59.208;18.216;2023-01-29T12:55:21;5.57;;;1.40;;
12681;SDS011;6405;59.208;18.216;2023-01-29T12:58:11;5.40;;;1.87;;
12681;SDS011;6405;59.208;18.216;2023-01-29T13:00:43;9.33;;;2.47;;
12681;SDS011;6405;59.208;18.216;2023-01-29T13:08:10;8.67;;;1.87;;
12681;SDS011;6405;59.208;18.216;2023-01-29T13:10:59;9.10;;;2.37;;
12681;SDS011;6405;59.208;18.216;2023-01-29T13:13:32;4.30;;;1.77;;
12681;SDS011;6405;59.208;18.216;2023-01-29T13:16:17;7.30;;;1.60;;
12681;SDS011;6405;59.208;18.216;2023-01-29T13:18:58;6.70;;;2.20;;
12681;SDS011;6405;59.208;18.216;2023-01-29T13:21:32;5.83;;;1.53;;
12681;SDS011;6405;59.208;18.216;2023-01-29T13:24:03;5.50;;;1.87;;
12681;SDS011;6405;59.208;18.216;2023-01-29T13:26:35;8.30;;;2.10;;
12681;SDS011;6405;59.208;18.216;2023-01-29T13:29:01;5.63;;;1.87;;
12681;SDS011;6405;59.208;18.216;2023-01-29T13:31:30;7.20;;;2.13;;
12681;SDS011;6405;59.208;18.216;2023-01-29T13:34:03;8.10;;;1.47;;
12681;SDS011;6405;59.208;18.216;2023-01-29T13:36:40;6.13;;;1.67;;
12681;SDS011;6405;59.208;18.216;2023-01-29T13:39:15;11.37;;;2.50;;
12681;SDS011;6405;59.208;18.216;2023-01-29T13:41:47;5.57;;;1.33;;
12681;SDS011;6405;59.208;18.216;2023-01-29T13:47:06;8.30;;;2.10;;
12681;SDS011;6405;59.208;18.216;2023-01-29T13:49:36;9.93;;;2.63;;
12681;SDS011;6405;59.208;18.216;2023-01-29T13:54:58;10.37;;;2.20;;
12681;SDS011;6405;59.208;18.216;2023-01-29T14:05:42;8.90;;;2.27;;
12681;SDS011;6405;59.208;18.216;2023-01-29T14:13:46;5.47;;;1.63;;
12681;SDS011;6405;59.208;18.216;2023-01-29T14:31:38;7.47;;;1.60;;
12681;SDS011;6405;59.208;18.216;2023-01-29T14:34:24;8.63;;;1.80;;
12681;SDS011;6405;59.208;18.216;2023-01-29T14:37:43;8.80;;;2.10;;
12681;SDS011;6405;59.208;18.216;2023-01-29T14:42:44;3.87;;;1.53;;
12681;SDS011;6405;59.208;18.216;2023-01-29T14:47:58;4.77;;;1.40;;
12681;SDS011;6405;59.208;18.216;2023-01-29T14:55:48;7.10;;;1.17;;
12681;SDS011;6405;59.208;18.216;2023-01-29T14:58:37;5.17;;;1.47;;
12681;SDS011;6405;59.208;18.216;2023-01-29T15:03:50;3.87;;;1.30;;
12681;SDS011;6405;59.208;18.216;2023-01-29T15:09:15;5.17;;;1.80;;
12681;SDS011;6405;59.208;18.216;2023-01-29T15:12:38;3.90;;;1.70;;
12681;SDS011;6405;59.208;18.216;2023-01-29T15:17:50;6.57;;;1.53;;
12681;SDS011;6405;59.208;18.216;2023-01-29T15:23:02;12.00;;;5.30;;
12681;SDS011;6405;59.208;18.216;2023-01-29T15:25:35;7.20;;;2.30;;
12681;SDS011;6405;59.208;18.216;2023-01-29T15:28:11;4.90;;;2.33;;
12681;SDS011;6405;59.208;18.216;2023-01-29T15:30:37;4.93;;;2.10;;
12681;SDS011;6405;59.208;18.216;2023-01-29T15:33:03;7.60;;;3.53;;
12681;SDS011;6405;59.208;18.216;2023-01-29T15:35:35;11.20;;;2.70;;
12681;SDS011;6405;59.208;18.216;2023-01-29T15:40:38;10.77;;;1.87;;
12681;SDS011;6405;59.208;18.216;2023-01-29T15:43:20;6.57;;;2.27;;
12681;SDS011;6405;59.208;18.216;2023-01-29T15:45:48;3.87;;;2.17;;
12681;SDS011;6405;59.208;18.216;2023-01-29T15:48:16;5.97;;;2.70;;
12681;SDS011;6405;59.208;18.216;2023-01-29T15:50:44;11.93;;;3.60;;
12681;SDS011;6405;59.208;18.216;2023-01-29T15:53:16;5.93;;;2.13;;
12681;SDS011;6405;59.208;18.216;2023-01-29T15:55:44;5.60;;;1.67;;
12681;SDS011;6405;59.208;18.216;2023-01-29T15:58:14;6.07;;;1.53;;
12681;SDS011;6405;59.208;18.216;2023-01-29T16:00:47;6.87;;;2.20;;
12681;SDS011;6405;59.208;18.216;2023-01-29T16:03:18;4.00;;;1.50;;
12681;SDS011;6405;59.208;18.216;2023-01-29T16:05:47;6.40;;;2.20;;
12681;SDS011;6405;59.208;18.216;2023-01-29T16:08:13;7.80;;;1.93;;
12681;SDS011;6405;59.208;18.216;2023-01-29T16:10:40;5.70;;;1.60;;
12681;SDS011;6405;59.208;18.216;2023-01-29T16:13:10;7.93;;;2.10;;
12681;SDS011;6405;59.208;18.216;2023-01-29T16:15:57;5.83;;;2.70;;
12681;SDS011;6405;59.208;18.216;2023-01-29T16:18:32;4.77;;;2.13;;
12681;SDS011;6405;59.208;18.216;2023-01-29T16:21:01;4.47;;;1.93;;
12681;SDS011;6405;59.208;18.216;2023-01-29T16:23:33;4.03;;;2.13;;
12681;SDS011;6405;59.208;18.216;2023-01-29T16:26:04;5.23;;;1.67;;
12681;SDS011;6405;59.208;18.216;2023-01-29T16:28:32;8.40;;;5.63;;
12681;SDS011;6405;59.208;18.216;2023-01-29T16:31:04;13.60;;;6.07;;
12681;SDS011;6405;59.208;18.216;2023-01-29T16:33:32;14.43;;;5.17;;
12681;SDS011;6405;59.208;18.216;2023-01-29T16:36:00;5.27;;;1.43;;
12681;SDS011;6405;59.208;18.216;2023-01-29T16:38:30;8.73;;;2.27;;
12681;SDS011;6405;59.208;18.216;2023-01-29T16:46:22;13.77;;;3.00;;
12681;SDS011;6405;59.208;18.216;2023-01-29T16:48:48;7.40;;;1.80;;
12681;SDS011;6405;59.208;18.216;2023-01-29T16:51:28;7.20;;;1.83;;
12681;SDS011;6405;59.208;18.216;2023-01-29T16:54:11;8.33;;;1.90;;
12681;SDS011;6405;59.208;18.216;2023-01-29T16:56:43;7.30;;;1.80;;
12681;SDS011;6405;59.208;18.216;2023-01-29T16:59:24;6.63;;;1.47;;
12681;SDS011;6405;59.208;18.216;2023-01-29T17:01:58;10.57;;;2.10;;
12681;SDS011;6405;59.208;18.216;2023-01-29T17:04:24;6.37;;;1.37;;
12681;SDS011;6405;59.208;18.216;2023-01-29T17:06:55;6.83;;;1.67;;
12681;SDS011;6405;59.208;18.216;2023-01-29T17:09:30;4.70;;;1.57;;
12681;SDS011;6405;59.208;18.216;2023-01-29T17:12:03;6.43;;;1.67;;
12681;SDS011;6405;59.208;18.216;2023-01-29T17:14:31;9.30;;;1.60;;
12681;SDS011;6405;59.208;18.216;2023-01-29T17:17:02;7.40;;;1.60;;
12681;SDS011;6405;59.208;18.216;2023-01-29T17:19:29;6.77;;;1.70;;
12681;SDS011;6405;59.208;18.216;2023-01-29T17:21:56;8.00;;;1.53;;
12681;SDS011;6405;59.208;18.216;2023-01-29T17:24:23;6.87;;;1.40;;
12681;SDS011;6405;59.208;18.216;2023-01-29T17:26:49;7.40;;;1.77;;
12681;SDS011;6405;59.208;18.216;2023-01-29T17:29:20;3.70;;;1.47;;
12681;SDS011;6405;59.208;18.216;2023-01-29T17:31:48;5.57;;;1.17;;
12681;SDS011;6405;59.208;18.216;2023-01-29T17:34:14;8.27;;;1.90;;
12681;SDS011;6405;59.208;18.216;2023-01-29T17:36:41;4.60;;;1.50;;
12681;SDS011;6405;59.208;18.216;2023-01-29T17:39:20;4.93;;;1.33;;
12681;SDS011;6405;59.208;18.216;2023-01-29T17:41:51;4.40;;;1.20;;
12681;SDS011;6405;59.208;18.216;2023-01-29T17:44:18;4.47;;;1.50;;
12681;SDS011;6405;59.208;18.216;2023-01-29T17:46:44;3.23;;;1.33;;
12681;SDS011;6405;59.208;18.216;2023-01-29T17:49:17;5.13;;;1.20;;
12681;SDS011;6405;59.208;18.216;2023-01-29T17:51:47;5.43;;;1.33;;
12681;SDS011;6405;59.208;18.216;2023-01-29T17:54:14;3.47;;;1.40;;
12681;SDS011;6405;59.208;18.216;2023-01-29T17:56:40;9.40;;;1.50;;